Pagina principale
METAR-TAF:

Aeroporti :

Genova, Italia

Aeroporto di Genova-Sestri

latitudine: 44-25N, longitudine: 008-51E, altezza: 2 m

Osservazione

Il bollettino è stato emesso 34 minuti fa, alle 20:20 UTC
Vento 12 kt da sud-est
Temperature 23°C
Umidità 83%
Pressione 1013 hPa
Visibilità 10 km o più
Nubi sparse ad un'altezza di 1800 ft

METAR: LIMJ 262020Z 14012KT 9999 SCT018 23/20 Q1013

Ora: 22:54 (20:54 UTC)

Previsione

Il bollettino è stato emesso 3 ore e 54 minuti fa, alle 17:00 UTC
Previsione valida dal 26 alle 18 UTC al 27 alle 18 UTC
Vento 8 kt da sud/sud-est
Visibilità 10 km o più
Nubi sparse ad un'altezza di 2500 ft

TAF: LIMJ 261700Z 2618/2718 15008KT 9999 SCT025

METAR-TAF

Osservazioni e previsioni meteorologiche di più di 4000 aeroporti (messaggi METAR e TAF).

Le stazioni disponibili sono rappresentate dai dischi gialli e rossi sulla carta.

Puntare il mouse per vedere il nome della stazione.

Clicca sopra per visualizzare le osservazioni e previsioni meteorologiche.

Per cambiare la mappa : fare clic sui pulsanti verdi con una croce nera per ingrandire, il pulsante verde con un trattino per diminuire, o sulla freccia verde per le mappe adiacenti.


METAR-TAF: